Station ICAC1 - 9410840 - Santa Monica Pier Image indicating link to RSS feed of recent meteorological observations for station ICAC1


Conditions at ICAC1 as of
(3:30 am PDT)
1030 GMT on 09/01/2026:
     

Click on the graph icon in the table below to see a time series plot of the last five days of that observation.

5-day plot - Wind Direction Wind Direction (WDIR):ENE ( 60 deg true )
5-day plot - Wind Speed Wind Speed (WSPD): 7.0 kts
5-day plot - Wind Gust Wind Gust (GST): 8.0 kts
5-day plot - Atmospheric Pressure Atmospheric Pressure (PRES):29.95 in
5-day plot - Air Temperature Air Temperature (ATMP): 65.5 °F
5-day plot - Water Temperature Water Temperature (WTMP): 73.8 °F
5-day plot - Wind Speed at 10 Meters Wind Speed at 10 meters (WSPD10M): 5.8 kts
5-day plot - Wind Speed at 20 Meters Wind Speed at 20 meters (WSPD20M): 7.8 kts
5-day plot -  Wind Speed, Wind Gust and Atmospheric Pressure Combined plot of Wind Speed, Gust, and Air Pressure
NOS Water Level Observation Network Water Level
Previous observations
TIME
(PDT)
5-day plot - Wind Direction
WDIR
 
5-day plot - Wind Speed
WSPD
kts
5-day plot - Wind Gust
GST
kts
5-day plot - Wave Height
WVHT
ft
5-day plot - Dominant Wave Period
DPD
sec
5-day plot - Average Wave Period
APD
sec
5-day plot - Mean Wave Direction
MWD
 
5-day plot - Atmospheric Pressure
PRES
in
5-day plot - Pressure Tendency
PTDY
in
5-day plot - Air Temperature
ATMP
°F
5-day plot - Water Temperature
WTMP
°F
5-day plot - Dew Point
DEWP
°F
5-day plot - Salinity
SAL
psu
5-day plot - Visibility
VIS
nmi
5-day plot - Tide (above MLLW)
TIDE
ft
2026-09-01 03:24 amENE 5.1 5.1----29.95- 65.5 73.8----
2026-09-01 03:18 am E 4.1 5.1----29.96-- 73.8----
2026-09-01 03:12 am E 2.9 5.1----29.96-- 74.1----
2026-09-01 03:06 amENE 2.9 4.1----29.96-- 74.1----
2026-09-01 03:00 am E 4.1 5.1----29.96- 66.2 73.9----
2026-09-01 02:54 amWSW 5.1 6.0----29.96- 67.6 73.9----
2026-09-01 02:48 amWSW 2.9 6.0----29.96- 67.5 73.8----
2026-09-01 02:42 amNNW 1.9 5.1----29.96- 66.7 73.6----
2026-09-01 02:36 am E 1.9 2.9----29.96- 66.2 73.4----
2026-09-01 02:30 amESE 1.9 4.1----29.96- 66.2 73.4----
2026-09-01 02:24 am NE 1.9 2.9----29.95- 66.2 73.4----
2026-09-01 02:18 amESE 1.9 6.0----29.95-- 73.4----
2026-09-01 02:12 amENE 5.1 6.0----29.96-- 73.4----
2026-09-01 02:06 amENE 4.1 5.1----29.96-- 73.6----
2026-09-01 02:00 am E 2.9 5.1----29.96+0.01 66.6 73.6----
2026-09-01 01:54 am E 4.1 6.0----29.96- 66.6 73.8----
2026-09-01 01:48 amENE 5.1 6.0----29.96-- 74.1----
2026-09-01 01:42 am E 4.1 4.1----29.96-- 74.1----
2026-09-01 01:36 am E 1.0 1.9----29.96-- 74.3----
2026-09-01 01:30 am S 1.9 2.9----29.96- 67.6 74.3----
2026-09-01 01:24 am S 1.0 2.9----29.96- 67.6 74.1----
2026-09-01 01:18 am SW 1.9 2.9----29.96-- 74.1----
2026-09-01 01:12 amSSW 1.9 2.9----29.96-- 74.3----
2026-09-01 01:06 am SE 1.9 2.9----29.96-- 74.5----
2026-09-01 01:00 am E 1.9 4.1----29.96+0.02 67.8 74.5----
2026-09-01 12:54 amSSE 1.0 4.1----29.96- 67.5 74.3----
2026-09-01 12:48 amSSE 1.9 2.9----29.96- 68.0 74.5----
2026-09-01 12:42 amENE 1.9 4.1----29.96- 67.6 74.7----
2026-09-01 12:36 am SE 2.9 5.1----29.96- 68.0 74.7----
2026-09-01 12:30 amSSE 2.9 5.1----29.96- 68.0 74.8----
2026-09-01 12:24 amSSE 2.9 5.1----29.96- 68.4 74.8----
2026-09-01 12:18 am S 5.1 6.0----29.96- 68.2 74.8----
2026-09-01 12:12 amSSE 4.1 6.0----29.96- 68.0 74.8----
2026-09-01 12:06 amSSE 4.1 4.1----29.96- 68.2 74.7----
2026-09-01 12:00 amSSW 2.9 6.0------ 68.0 74.7----
2026-08-31 11:54 pm S 4.1 5.1------ 68.2 74.8----
2026-08-31 11:48 pm S 4.1 5.1----29.95- 68.2 74.8----
2026-08-31 11:42 pm S 2.9 4.1----29.95- 68.2 74.7----
2026-08-31 11:36 pm S 2.9 5.1----29.95- 68.4 74.7----
2026-08-31 11:30 pmSSW 4.1 5.1----29.95-- 74.7----
2026-08-31 11:24 pm SW 2.9 5.1----29.95-- 74.7----
2026-08-31 11:18 pm SW 4.1 5.1----29.95-- 74.7----
2026-08-31 11:12 pm SW 4.1 5.1----29.95-- 74.7----
2026-08-31 11:06 pm SW 4.1 5.1----29.95-- 74.7----
2026-08-31 11:00 pm SW 4.1 5.1----29.94+0.04 68.5 74.7----
2026-08-31 10:54 pmSSW 4.1 5.1----29.94- 68.2 74.7----
2026-08-31 10:48 pm SW 4.1 5.1----29.94- 68.4 74.7----
2026-08-31 10:42 pm SW 2.9 4.1----29.94- 68.5 74.7----
2026-08-31 10:36 pmWSW 4.1 5.1----29.94- 68.5 74.7----
2026-08-31 10:30 pm SW 4.1 7.0----29.94-- 74.7----
2026-08-31 10:24 pm W 4.1 6.0----29.94-- 74.8----
2026-08-31 10:18 pmWSW 5.1 7.0----29.94-- 74.8----
2026-08-31 10:12 pmWSW 6.0 7.0----29.94-- 74.8----
2026-08-31 10:06 pmWSW 6.0 8.0----29.94-- 74.8----
2026-08-31 10:00 pmWSW 5.1 7.0----29.94+0.03 68.7 74.8----
2026-08-31 09:54 pmWSW 5.1 8.0----29.94- 68.9 74.8----
2026-08-31 09:48 pmWSW 7.0 8.0----29.94- 68.7 75.0----
2026-08-31 09:42 pm W 7.0 8.0----29.94- 68.7 75.0----
2026-08-31 09:36 pmWSW 7.0 8.0----29.94- 68.7 75.2----
2026-08-31 09:30 pm W 6.0 8.0----29.94- 68.7 75.2----
2026-08-31 09:24 pmWSW 6.0 8.0----29.93- 68.7 75.2----
2026-08-31 09:18 pmWSW 7.0 8.0----29.93-- 75.2----
2026-08-31 09:12 pmWSW 6.0 8.0----29.93-- 75.2----
2026-08-31 09:06 pm W 7.0 8.0----29.92-- 75.4----
2026-08-31 09:00 pm W 6.0 8.0----29.92+0.01 68.7 75.4----
2026-08-31 08:54 pm W 7.0 8.9----29.92- 68.9 75.4----
2026-08-31 08:48 pm W 7.0 9.9----29.91-- 75.4----
2026-08-31 08:42 pm W 8.9 11.1----29.91-- 75.4----
2026-08-31 08:36 pm W 8.9 9.9----29.91-- 75.4----
2026-08-31 08:30 pm W 8.0 9.9----29.91- 69.1 75.4----
2026-08-31 08:24 pm W 8.9 9.9----29.91- 69.1 75.4----
2026-08-31 08:18 pm W 8.0 9.9------- 75.4----
2026-08-31 08:12 pm W 8.0 8.9------- 75.4----
2026-08-31 08:06 pm W 8.9 9.9------- 75.4----
2026-08-31 08:00 pm W 8.9 9.9----29.90-0.01 68.4 75.4----
2026-08-31 07:54 pm W 8.9 11.1----29.90- 68.5 75.4----
2026-08-31 07:48 pm W 8.9 11.1----29.90- 68.4 75.4----
2026-08-31 07:42 pm W 8.9 12.0----29.90- 68.5 75.4----
2026-08-31 07:36 pm W 11.1 13.0----29.90- 68.4 75.4----
2026-08-31 07:30 pmWNW 12.0 15.0----29.90- 68.5 75.4----
2026-08-31 07:24 pm W 12.0 14.0----29.90- 68.4 75.4----
2026-08-31 07:18 pm W 12.0 14.0----29.90-- 75.4----
2026-08-31 07:12 pm W 12.0 13.0----29.90-- 75.4----
2026-08-31 07:06 pm W 12.0 14.0----29.91-- 75.4----
2026-08-31 07:00 pm W 11.1 13.0----29.91-0.01 69.1 75.6----
2026-08-31 06:54 pm W 12.0 13.0----29.90- 69.1 75.6----
2026-08-31 06:48 pm W 11.1 13.0----29.91- 69.3 75.6----
2026-08-31 06:42 pm W 12.0 13.0----29.91- 69.3 75.6----
2026-08-31 06:36 pm W 11.1 13.0----29.91- 69.6 75.6----
2026-08-31 06:30 pm W 9.9 12.0----29.91- 69.6 75.6----
2026-08-31 06:24 pm W 11.1 12.0----29.91- 69.4 75.7----
2026-08-31 06:18 pm W 12.0 13.0----29.91-- 75.7----
2026-08-31 06:12 pm W 12.0 13.0----29.91-- 75.6----
2026-08-31 06:06 pm W 12.0 13.0----29.91-- 75.6----
2026-08-31 06:00 pm W 13.0 14.0----29.91-0.02 69.4 75.6----
2026-08-31 05:54 pm W 12.0 13.0----29.91- 69.6 75.6----
2026-08-31 05:48 pm W 12.0 13.0----29.91-- 75.6----
2026-08-31 05:42 pm W 11.1 13.0----29.91-- 75.6----
2026-08-31 05:36 pm W 12.0 13.0----29.91-- 75.6----
2026-08-31 05:30 pm W 12.0 13.0----29.91- 69.8 75.6----
2026-08-31 05:24 pm W 12.0 14.0----29.91- 69.8 75.6----
2026-08-31 05:18 pm W 12.0 14.0----29.91-- 75.6----
2026-08-31 05:12 pm W 12.0 14.0----29.91-- 75.6----
2026-08-31 05:06 pm W 12.0 13.0----29.91-- 75.6----
2026-08-31 05:00 pm W 11.1 13.0----29.91-0.02 70.3 75.6----
2026-08-31 04:54 pm W 12.0 13.0----29.91- 70.2 75.4----
2026-08-31 04:48 pm W 11.1 14.0----29.91-- 75.4----
2026-08-31 04:42 pm W 12.0 13.0----29.91-- 75.4----
2026-08-31 04:36 pm W 11.1 13.0----29.91-- 75.4----
2026-08-31 03:48 pm W 8.9 11.1----29.91- 70.5 75.2----
2026-08-31 03:42 pm W 9.9 11.1----29.92- 70.7 75.2----
2026-08-31 03:36 pm W 8.9 9.9----29.92- 70.7 75.2----
2026-08-31 03:30 pm W 8.9 11.1----29.92- 70.5-----
2026-08-31 03:24 pm W 8.9 11.1----29.92- 70.5-----
2026-08-31 03:18 pm W 8.9 11.1----29.92- 70.5 75.0----
2026-08-31 03:12 pmWNW 9.9 12.0----29.93- 70.7 74.8----
2026-08-31 03:06 pm W 9.9 13.0----29.93- 70.9 74.7----
2026-08-31 03:00 pm W 11.1 12.0----29.93-0.02 70.9 74.7----
2026-08-31 02:54 pm W 9.9 12.0----29.93- 71.1 74.7----
2026-08-31 02:48 pm W 9.9 11.1----29.93- 71.1 74.7----
2026-08-31 02:42 pm W 8.9 9.9----29.93- 71.1 74.5----
2026-08-31 02:36 pm W 8.9 9.9----29.93- 70.9 74.3----
2026-08-31 02:30 pm W 8.0 8.9----29.93- 70.9 74.1----
2026-08-31 02:24 pm W 8.0 9.9----29.94- 70.9 74.1----
2026-08-31 02:18 pm W 8.9 8.9----29.94-- 74.1----
2026-08-31 02:12 pm W 8.0 9.9----29.94-- 74.3----
2026-08-31 02:06 pm W 8.9 9.9----29.94-- 74.5----
2026-08-31 02:00 pm W 8.9 9.9----29.94-0.02 70.9 74.5----
2026-08-31 01:54 pm W 8.9 9.9----29.94- 71.4 74.5----
2026-08-31 01:48 pm W 8.9 9.9----29.94- 71.6 74.5----
2026-08-31 01:42 pm W 8.0 9.9----29.94- 71.8 74.5----
2026-08-31 01:36 pm W 8.9 11.1----29.94- 71.6 74.5----
2026-08-31 01:30 pm W 8.9 9.9----29.94-- 74.5----
2026-08-31 01:24 pm W 8.9 11.1----29.94-- 74.5----
2026-08-31 01:18 pm W 9.9 11.1----29.94-- 74.5----
2026-08-31 01:12 pm W 9.9 11.1----29.94-- 74.5----
2026-08-31 01:06 pm W 8.9 11.1----29.94-- 74.7----
2026-08-31 01:00 pm W 8.9 11.1----29.95+0.00 71.6 74.7----
2026-08-31 12:54 pm W 8.9 11.1----29.95- 71.6 74.7----
2026-08-31 12:48 pm W 8.9 9.9----29.95- 71.6 74.7----
2026-08-31 12:42 pm W 8.0 9.9----29.95- 71.6 74.7----
2026-08-31 12:36 pm W 8.0 9.9----29.95- 71.6 74.7----
2026-08-31 12:30 pm W 8.0 9.9----29.95- 71.8 74.5----
2026-08-31 12:24 pm W 8.0 8.9----29.95- 71.6 74.5----
2026-08-31 12:18 pm W 7.0 8.0----29.96-- 74.5----
2026-08-31 12:12 pm W 7.0 8.0----29.96-- 74.5----
2026-08-31 12:06 pm W 8.0 8.0----29.96-- 74.5----
2026-08-31 12:00 pm W 7.0 8.0----29.95+0.02 71.4 74.5----
2026-08-31 11:54 am W 7.0 8.9----29.95- 71.4 74.5----
2026-08-31 11:48 am W 8.0 9.9----29.96- 71.1 74.3----
2026-08-31 11:42 am W 7.0 8.9----29.96- 71.2 74.3----
2026-08-31 11:36 am W 7.0 8.0----29.95- 71.2 74.3----
2026-08-31 11:30 amWSW 7.0 8.9----29.96- 71.1 74.3----
2026-08-31 11:24 amWSW 7.0 8.0----29.96- 71.2 74.3----
2026-08-31 11:18 amWSW 8.0 8.0----29.96-- 74.1----
2026-08-31 11:12 amWSW 7.0 8.9----29.96-- 74.1----
2026-08-31 11:06 amWSW 8.0 8.9----29.96-- 74.1----
2026-08-31 11:00 amWSW 6.0 8.0----29.96+0.03 71.2 73.9----
2026-08-31 10:54 amWSW 7.0 8.0----29.95- 71.2 73.8----
2026-08-31 10:48 am SW 7.0 8.0----29.95-- 73.8----
2026-08-31 10:42 am SW 6.0 8.0----29.95-- 73.8----
2026-08-31 10:36 am SW 7.0 8.0----29.95-- 73.6----
2026-08-31 10:30 am SW 6.0 7.0----29.95- 71.6 73.4----
2026-08-31 10:24 am SW 6.0 8.0----29.96- 71.8 73.2----
2026-08-31 10:18 am SW 6.0 8.0----29.95-- 73.2----
2026-08-31 10:12 am SW 6.0 8.0----29.95-- 73.0----
2026-08-31 10:06 am SW 6.0 8.0----29.95-- 72.9----
2026-08-31 10:00 am SW 6.0 8.0----29.95+0.04 71.4 72.7----
2026-08-31 09:54 am SW 6.0 7.0----29.95- 71.2 72.5----
2026-08-31 09:48 am SW 7.0 7.0----29.95- 70.9 72.3----
2026-08-31 09:42 am SW 6.0 8.0----29.94- 71.1 72.0----
2026-08-31 09:36 am SW 7.0 8.0----29.94- 71.1 72.1----
2026-08-31 09:30 am SW 7.0 7.0----29.94- 71.1 72.1----
2026-08-31 09:24 am SW 6.0 7.0----29.94- 70.9 72.3----
2026-08-31 09:18 am SW 6.0 6.0----29.94-- 72.5----
2026-08-31 09:12 amSSW 5.1 6.0----29.94-- 72.5----
2026-08-31 09:06 am SW 5.1 6.0----29.93-- 72.5----
2026-08-31 09:00 am SW 5.1 5.1----29.93+0.04 71.2 72.0----
2026-08-31 08:54 amSSW 4.1 5.1----29.94- 71.2 71.6----
2026-08-31 08:48 am SW 5.1 5.1----29.93- 71.2 71.8----
2026-08-31 08:42 amSSW 2.9 4.1----29.93- 71.4 72.5----
2026-08-31 08:36 amSSW 2.9 4.1----29.93- 71.8 73.2----
2026-08-31 08:30 am SW 1.9 2.9----29.93- 72.0 73.9----
2026-08-31 08:24 amSSW 1.9 1.9----29.93- 72.3 74.1----
2026-08-31 08:18 am S 1.9 1.9----29.93-- 74.1----
2026-08-31 08:12 am S 1.0 1.9----29.93-- 74.1----
2026-08-31 08:06 am- 0.0 1.0----29.93-- 74.1----
2026-08-31 08:00 am SE 1.0 1.0----29.93+0.04 74.1 74.1----
2026-08-31 07:54 am- 0.0 1.0----29.93- 74.1 74.1----
2026-08-31 07:48 am- 0.0 1.0----29.93- 73.4 74.1----
2026-08-31 07:42 am- 0.0 1.9----29.93- 72.9 74.1----
2026-08-31 07:36 amENE 1.9 1.9----29.92- 71.8 74.1----
2026-08-31 07:30 am NE 1.9 4.1----29.92- 71.1 74.1----
2026-08-31 07:24 am NE 1.9 2.9----29.92- 70.7 74.1----
2026-08-31 07:18 amENE 2.9 5.1----29.92-- 74.1----
2026-08-31 07:12 amENE 5.1 5.1----29.91-- 74.1----
2026-08-31 07:06 am NE 4.1 5.1----29.91-- 73.9----
2026-08-31 07:00 am NE 2.9 4.1----29.91+0.01 69.4 73.9----
2026-08-31 06:54 am NE 2.9 5.1----29.91- 68.9 73.9----
2026-08-31 06:48 am NE 4.1 5.1----29.91-- 73.9----
2026-08-31 06:42 am NE 4.1 4.1----29.90-- 73.9----
2026-08-31 06:36 am NE 2.9 4.1----29.90-- 73.9----
2026-08-31 06:30 am NE 2.9 4.1----29.90- 68.9 73.9----
2026-08-31 06:24 am NE 2.9 2.9----29.90- 69.3 73.9----
2026-08-31 06:18 am NE 1.9 2.9----29.90-- 73.9----
2026-08-31 06:12 am NE 1.9 1.9----29.90-- 74.1----
2026-08-31 06:06 am NE 1.9 1.9----29.90-- 74.1----
2026-08-31 06:00 am NE 1.9 2.9----29.90+0.00 68.9 74.1----
2026-08-31 05:54 am NE 1.9 4.1----29.90- 69.1 73.9----
2026-08-31 05:48 am NE 2.9 4.1----29.90-- 73.9----
2026-08-31 05:42 am NE 1.9 4.1----29.89-- 73.9----
2026-08-31 05:36 am NE 2.9 4.1----29.89-- 73.9----
2026-08-31 05:30 am NE 1.9 2.9----29.89- 69.6 74.1----
2026-08-31 05:24 am NE 1.9 2.9----29.89- 69.4 74.1----
2026-08-31 05:18 amENE 2.9 2.9----29.89-- 74.1----
2026-08-31 05:12 am NE 4.1 4.1----29.89-- 74.1----
2026-08-31 05:06 amENE 1.9 2.9----29.89-- 73.9----
2026-08-31 05:00 am NE 2.9 2.9----29.89+0.00 69.4 73.9----
2026-08-31 04:54 am NE 2.9 2.9----29.89- 69.6 73.9----
2026-08-31 04:48 amENE 2.9 4.1----29.89-- 73.9----
2026-08-31 04:42 amENE 1.9 4.1----29.89-- 73.9----
2026-08-31 04:36 amENE 2.9 4.1----29.89-- 73.9----
2026-08-31 04:30 amENE 2.9 4.1----29.89- 69.8 73.9----
2026-08-31 04:24 amENE 1.9 2.9----29.89- 69.8 73.9----
2026-08-31 04:18 am E 1.9 2.9----29.89-- 73.9----
2026-08-31 04:12 amNNE 1.9 2.9----29.89-- 73.8----
2026-08-31 04:06 amNNE 1.9 2.9----29.89-- 73.9----
2026-08-31 04:00 am S 1.0 1.9----29.89+0.00 70.7 73.9----
2026-08-31 03:54 am SW 1.9 2.9----29.90- 70.9 73.9----